createdAt,value
2023-03-29T00:01:10.329Z,98717.31
2023-03-29T00:03:15.399Z,98718.06
2023-03-29T00:05:23.285Z,98709.34
2023-03-29T00:07:30.376Z,98711.88
2023-03-29T00:09:37.922Z,98708.38
2023-03-29T00:11:43.103Z,98716.06
2023-03-29T00:13:47.883Z,98718.72
2023-03-29T00:15:52.769Z,98717.94
2023-03-29T00:17:57.759Z,98711.81
2023-03-29T00:20:03.069Z,98713.53
2023-03-29T00:22:08.528Z,98710.09
2023-03-29T00:24:13.396Z,98707.47
2023-03-29T00:26:21.147Z,98706.53
2023-03-29T00:28:26.655Z,98689.25
2023-03-29T00:30:32.146Z,98687.44
2023-03-29T00:32:37.464Z,98683.09
2023-03-29T00:34:42.882Z,98677.09
2023-03-29T00:36:51.022Z,98672.81
2023-03-29T00:38:56.241Z,98671.19
2023-03-29T00:41:01.609Z,98659.22
2023-03-29T00:43:12.936Z,98661.06
2023-03-29T00:45:25.373Z,98667.19
2023-03-29T00:47:34.111Z,98658.56
2023-03-29T00:49:38.986Z,98653.34
2023-03-29T00:51:44.980Z,98648.09
2023-03-29T00:53:53.615Z,98647.97
2023-03-29T00:56:02.670Z,98649.72
2023-03-29T00:58:13.844Z,98650.50
2023-03-29T01:00:23.656Z,98652.19
2023-03-29T01:02:35.095Z,98647.81
2023-03-29T01:04:43.734Z,98639.22
2023-03-29T01:06:52.846Z,98630.56
2023-03-29T01:09:01.240Z,98628.03
2023-03-29T01:11:12.873Z,98622.88
2023-03-29T01:13:27.344Z,98615.09
2023-03-29T01:15:33.364Z,98608.19
2023-03-29T01:17:38.481Z,98604.63
2023-03-29T01:19:50.337Z,98609.00
2023-03-29T01:22:02.363Z,98606.38
2023-03-29T01:24:32.420Z,98596.84
2023-03-29T01:26:45.943Z,98592.53
2023-03-29T01:28:56.239Z,98587.41
2023-03-29T01:31:08.732Z,98588.22
2023-03-29T01:33:21.358Z,98595.16
2023-03-29T01:35:32.752Z,98591.66
2023-03-29T01:37:42.741Z,98588.19
2023-03-29T01:39:49.015Z,98597.66
2023-03-29T01:42:07.687Z,98583.00
2023-03-29T01:44:19.729Z,98583.00
2023-03-29T01:46:31.106Z,98581.13
2023-03-29T01:48:44.364Z,98574.25
2023-03-29T01:50:52.700Z,98573.28
2023-03-29T01:53:02.231Z,98574.97
2023-03-29T01:55:12.449Z,98570.59
2023-03-29T01:57:21.930Z,98565.47
2023-03-29T01:59:36.236Z,98563.75
2023-03-29T02:01:49.465Z,98568.03
2023-03-29T02:03:57.848Z,98566.25
2023-03-29T02:06:05.104Z,98555.13
2023-03-29T02:08:14.690Z,98562.91
2023-03-29T02:10:21.780Z,98563.75
2023-03-29T02:12:27.213Z,98561.19
2023-03-29T02:14:35.342Z,98555.16
2023-03-29T02:16:41.566Z,98554.31
2023-03-29T02:18:49.357Z,98550.94
2023-03-29T02:20:55.915Z,98551.88
2023-03-29T02:23:08.501Z,98555.25
2023-03-29T02:25:13.562Z,98556.13
2023-03-29T02:27:18.721Z,98563.84
2023-03-29T02:29:23.736Z,98558.72
2023-03-29T02:31:36.188Z,98552.63
2023-03-29T02:33:46.010Z,98557.81
2023-03-29T02:35:59.638Z,98562.94
2023-03-29T02:38:08.142Z,98559.44
2023-03-29T02:40:16.332Z,98547.47
2023-03-29T02:42:22.480Z,98546.78
2023-03-29T02:44:31.150Z,98542.56
2023-03-29T02:46:39.360Z,98542.66
2023-03-29T02:48:44.965Z,98539.28
2023-03-29T02:51:01.045Z,98542.78
2023-03-29T02:53:10.707Z,98543.56
2023-03-29T02:55:20.482Z,98534.91
2023-03-29T02:57:26.959Z,98526.28
2023-03-29T02:59:33.582Z,98532.44
2023-03-29T03:01:42.864Z,98524.81
2023-03-29T03:03:48.296Z,98522.25
2023-03-29T03:05:54.950Z,98507.53
2023-03-29T03:08:00.201Z,98510.16
2023-03-29T03:10:05.827Z,98514.41
2023-03-29T03:12:10.903Z,98509.25
2023-03-29T03:14:16.881Z,98519.66
2023-03-29T03:16:22.298Z,98517.16
2023-03-29T03:18:29.580Z,98508.59
2023-03-29T03:20:34.974Z,98510.38
2023-03-29T03:22:40.555Z,98517.44
2023-03-29T03:24:46.353Z,98513.97
2023-03-29T03:26:51.316Z,98520.06
2023-03-29T03:28:57.344Z,98513.16
2023-03-29T03:31:28.760Z,98513.94
2023-03-29T03:33:55.813Z,98518.13
2023-03-29T03:36:03.219Z,98519.03
2023-03-29T03:38:09.402Z,98514.00
2023-03-29T03:40:15.585Z,98520.13
2023-03-29T03:42:20.806Z,98515.91
2023-03-29T03:44:25.908Z,98515.94
2023-03-29T03:46:48.360Z,98514.28
2023-03-29T03:48:56.006Z,98510.03
2023-03-29T03:51:07.888Z,98508.34
2023-03-29T03:53:13.748Z,98491.84
2023-03-29T03:55:37.111Z,98498.78
2023-03-29T03:57:49.500Z,98489.22
2023-03-29T03:59:56.768Z,98492.81
2023-03-29T04:02:18.415Z,98491.94
2023-03-29T04:04:27.151Z,98485.78
2023-03-29T04:06:43.181Z,98481.56
2023-03-29T04:09:14.648Z,98479.81
2023-03-29T04:11:23.041Z,98486.88
2023-03-29T04:13:29.450Z,98486.13
2023-03-29T04:16:00.937Z,98487.00
2023-03-29T04:18:07.847Z,98483.53
2023-03-29T04:20:22.027Z,98484.28
2023-03-29T04:22:27.676Z,98485.09
2023-03-29T04:24:32.549Z,98479.97
2023-03-29T04:26:57.403Z,98484.50
2023-03-29T04:29:02.845Z,98487.00
2023-03-29T04:31:22.549Z,98481.78
2023-03-29T04:33:36.694Z,98472.16
2023-03-29T04:35:44.346Z,98470.47
2023-03-29T04:37:54.900Z,98480.75
2023-03-29T04:40:04.800Z,98476.41
2023-03-29T04:42:21.277Z,98472.06
2023-03-29T04:44:26.955Z,98475.44
2023-03-29T04:46:32.558Z,98463.41
2023-03-29T04:48:40.490Z,98461.63
2023-03-29T04:50:51.459Z,98463.34
2023-03-29T04:53:00.363Z,98459.19
2023-03-29T04:55:08.310Z,98464.47
2023-03-29T04:57:46.301Z,98464.59
2023-03-29T04:59:59.658Z,98454.38
2023-03-29T05:02:27.758Z,98463.97
2023-03-29T05:04:33.262Z,98463.13
2023-03-29T05:06:50.018Z,98467.44
2023-03-29T05:08:55.445Z,98463.97
2023-03-29T05:11:19.999Z,98458.78
2023-03-29T05:13:25.529Z,98455.31
2023-03-29T05:15:31.236Z,98460.53
2023-03-29T05:17:36.226Z,98449.38
2023-03-29T05:19:46.961Z,98456.34
2023-03-29T05:21:55.395Z,98453.00
2023-03-29T05:24:01.965Z,98457.41
2023-03-29T05:26:30.654Z,98466.19
2023-03-29T05:28:36.469Z,98462.81
2023-03-29T05:30:42.721Z,98452.56
2023-03-29T05:32:55.334Z,98453.59
2023-03-29T05:35:03.034Z,98457.03
2023-03-29T05:37:13.624Z,98448.44
2023-03-29T05:39:27.596Z,98443.34
2023-03-29T05:41:32.899Z,98443.34
2023-03-29T05:44:04.101Z,98446.03
2023-03-29T05:46:10.259Z,98443.41
2023-03-29T05:48:20.057Z,98444.16
2023-03-29T05:50:24.997Z,98440.63
2023-03-29T05:52:33.171Z,98443.88
2023-03-29T05:54:38.197Z,98439.41
2023-03-29T05:56:44.158Z,98435.13
2023-03-29T05:58:51.404Z,98436.81
2023-03-29T06:00:58.344Z,98436.66
2023-03-29T06:03:25.663Z,98434.88
2023-03-29T06:05:33.567Z,98435.66
2023-03-29T06:07:42.547Z,98446.72
2023-03-29T06:10:12.425Z,98444.81
2023-03-29T06:12:22.090Z,98439.44
2023-03-29T06:14:34.710Z,98434.19
2023-03-29T06:16:52.163Z,98437.63
2023-03-29T06:18:57.550Z,98441.09
2023-03-29T06:21:03.787Z,98436.56
2023-03-29T06:23:11.686Z,98437.47
2023-03-29T06:25:17.771Z,98438.38
2023-03-29T06:27:25.211Z,98438.44
2023-03-29T06:29:31.156Z,98441.81
2023-03-29T06:31:36.514Z,98440.81
2023-03-29T06:33:43.403Z,98437.41
2023-03-29T06:36:09.792Z,98441.50
2023-03-29T06:38:17.802Z,98442.22
2023-03-29T06:40:37.436Z,98432.66
2023-03-29T06:42:43.129Z,98432.53
2023-03-29T06:45:07.220Z,98436.94
2023-03-29T06:47:12.127Z,98437.50
2023-03-29T06:49:17.322Z,98429.50
2023-03-29T06:51:35.331Z,98433.56
2023-03-29T06:53:42.837Z,98435.97
2023-03-29T06:55:48.077Z,98433.25
2023-03-29T06:58:11.425Z,98440.75
2023-03-29T07:00:19.824Z,98430.16
2023-03-29T07:02:43.269Z,98433.66
2023-03-29T07:04:50.414Z,98429.06
2023-03-29T07:07:20.731Z,98435.06
2023-03-29T07:09:36.105Z,98435.00
2023-03-29T07:11:59.868Z,98434.16
2023-03-29T07:14:05.925Z,98437.28
2023-03-29T07:16:12.913Z,98444.72
2023-03-29T07:18:26.900Z,98437.63
2023-03-29T07:20:32.347Z,98445.22
2023-03-29T07:22:43.672Z,98438.94
2023-03-29T07:24:51.357Z,98444.66
2023-03-29T07:27:04.219Z,98450.75
2023-03-29T07:29:11.750Z,98442.91
2023-03-29T07:31:17.981Z,98442.63
2023-03-29T07:33:28.423Z,98440.56
2023-03-29T07:35:36.741Z,98439.56
2023-03-29T07:37:43.065Z,98435.22
2023-03-29T07:39:51.133Z,98439.44
2023-03-29T07:42:15.845Z,98439.28
2023-03-29T07:44:21.809Z,98444.19
2023-03-29T07:46:26.868Z,98439.47
2023-03-29T07:48:32.666Z,98434.00
2023-03-29T07:50:43.430Z,98430.16
2023-03-29T07:52:49.392Z,98432.34
2023-03-29T07:54:57.219Z,98432.97
2023-03-29T07:57:17.697Z,98427.78
2023-03-29T07:59:29.174Z,98429.66
2023-03-29T08:01:50.609Z,98431.66
2023-03-29T08:04:16.054Z,98427.47
2023-03-29T08:06:53.420Z,98434.59
2023-03-29T08:09:01.659Z,98440.59
2023-03-29T08:11:10.334Z,98443.16
2023-03-29T08:13:35.741Z,98441.41
2023-03-29T08:16:11.432Z,98432.50
2023-03-29T08:18:29.005Z,98435.66
2023-03-29T08:20:34.155Z,98435.47
2023-03-29T08:22:42.416Z,98433.28
2023-03-29T08:25:07.145Z,98431.00
2023-03-29T08:27:19.838Z,98427.19
2023-03-29T08:29:25.704Z,98419.88
2023-03-29T08:31:31.025Z,98424.03
2023-03-29T08:33:36.470Z,98422.78
2023-03-29T08:36:13.293Z,98419.00
2023-03-29T08:38:18.417Z,98415.84
2023-03-29T08:40:24.677Z,98415.63
2023-03-29T08:43:19.560Z,98413.63
2023-03-29T08:46:00.268Z,98410.97
2023-03-29T08:48:18.867Z,98413.28
2023-03-29T08:50:28.759Z,98411.28
2023-03-29T08:52:37.521Z,98415.50
2023-03-29T08:54:59.580Z,98406.63
2023-03-29T08:57:15.092Z,98401.63
2023-03-29T08:59:27.616Z,98398.56
2023-03-29T09:01:38.798Z,98397.78
2023-03-29T09:03:50.707Z,98400.41
2023-03-29T09:06:11.064Z,98392.22
2023-03-29T09:08:18.878Z,98399.66
2023-03-29T09:10:36.490Z,98392.16
2023-03-29T09:12:46.831Z,98396.53
2023-03-29T09:15:00.729Z,98396.41
2023-03-29T09:17:19.515Z,98392.19
2023-03-29T09:19:35.947Z,98395.94
2023-03-29T09:21:47.067Z,98393.06
2023-03-29T09:24:10.530Z,98391.88
2023-03-29T09:26:28.512Z,98393.44
2023-03-29T09:29:20.098Z,98390.16
2023-03-29T09:31:28.853Z,98388.81
2023-03-29T09:33:43.458Z,98380.34
2023-03-29T09:35:57.621Z,98385.59
2023-03-29T09:38:03.434Z,98385.16
2023-03-29T09:40:16.823Z,98391.81
2023-03-29T09:42:38.315Z,98393.25
2023-03-29T09:44:47.959Z,98381.91
2023-03-29T09:46:59.806Z,98387.91
2023-03-29T09:49:17.292Z,98388.50
2023-03-29T09:51:27.279Z,98391.72
2023-03-29T09:53:32.355Z,98385.19
2023-03-29T09:55:50.242Z,98388.31
2023-03-29T09:58:27.738Z,98386.47
2023-03-29T10:00:33.274Z,98374.31
2023-03-29T10:02:38.290Z,98370.84
2023-03-29T10:04:45.898Z,98377.78
2023-03-29T10:06:52.747Z,98372.25
2023-03-29T10:08:59.554Z,98374.72
2023-03-29T10:11:23.464Z,98369.03
2023-03-29T10:13:32.517Z,98370.81
2023-03-29T10:15:37.433Z,98365.97
2023-03-29T10:17:43.956Z,98378.03
2023-03-29T10:19:58.522Z,98382.34
2023-03-29T10:22:05.596Z,98382.72
2023-03-29T10:24:12.679Z,98373.88
2023-03-29T10:26:28.944Z,98374.41
2023-03-29T10:28:35.424Z,98366.25
2023-03-29T10:30:43.023Z,98362.91
2023-03-29T10:32:48.348Z,98369.28
2023-03-29T10:34:56.554Z,98375.50
2023-03-29T10:37:03.531Z,98369.75
2023-03-29T10:39:09.614Z,98365.56
2023-03-29T10:41:16.059Z,98371.09
2023-03-29T10:43:25.885Z,98370.28
2023-03-29T10:45:33.220Z,98369.28
2023-03-29T10:47:38.245Z,98369.28
2023-03-29T10:49:47.669Z,98373.41
2023-03-29T10:51:55.579Z,98380.78
2023-03-29T10:54:01.852Z,98368.81
2023-03-29T10:56:32.481Z,98373.19
2023-03-29T10:58:46.752Z,98369.78
2023-03-29T11:00:57.862Z,98367.81
2023-03-29T11:03:20.195Z,98364.13
2023-03-29T11:05:33.196Z,98360.75
2023-03-29T11:07:50.213Z,98355.97
2023-03-29T11:10:01.728Z,98350.53
2023-03-29T11:12:16.081Z,98359.88
2023-03-29T11:14:33.097Z,98351.75
2023-03-29T11:16:43.397Z,98352.69
2023-03-29T11:19:19.184Z,98353.28
2023-03-29T11:21:34.170Z,98357.63
2023-03-29T11:23:49.029Z,98352.44
2023-03-29T11:26:05.410Z,98351.44
2023-03-29T11:28:17.559Z,98358.03
2023-03-29T11:30:28.461Z,98357.56
2023-03-29T11:32:39.999Z,98355.91
2023-03-29T11:35:00.360Z,98344.50
2023-03-29T11:37:16.719Z,98349.56
2023-03-29T11:39:34.218Z,98334.84
2023-03-29T11:41:43.116Z,98345.88
2023-03-29T11:43:53.733Z,98350.16
2023-03-29T11:46:04.978Z,98338.97
2023-03-29T11:48:19.576Z,98339.28
2023-03-29T11:50:28.822Z,98337.91
2023-03-29T11:52:39.861Z,98340.97
2023-03-29T11:54:51.976Z,98340.13
2023-03-29T11:57:02.735Z,98339.13
2023-03-29T11:59:16.185Z,98332.09
2023-03-29T12:01:28.348Z,98335.41
2023-03-29T12:03:45.480Z,98316.72
2023-03-29T12:05:54.877Z,98318.78
2023-03-29T12:08:04.636Z,98319.56
2023-03-29T12:10:20.797Z,98314.56
2023-03-29T12:12:31.558Z,98314.97
2023-03-29T12:14:49.821Z,98326.13
2023-03-29T12:17:01.303Z,98336.78
2023-03-29T12:19:09.897Z,98328.44
2023-03-29T12:21:18.132Z,98332.69
2023-03-29T12:23:23.378Z,98336.53
2023-03-29T12:25:35.019Z,98327.69
2023-03-29T12:27:50.054Z,98331.19
2023-03-29T12:30:18.046Z,98339.94
2023-03-29T12:32:41.296Z,98337.91
2023-03-29T12:35:21.001Z,98327.72
2023-03-29T12:37:50.412Z,98330.66
2023-03-29T12:40:38.844Z,98328.03
2023-03-29T12:43:05.221Z,98325.09
2023-03-29T12:45:36.167Z,98330.59
2023-03-29T12:47:45.751Z,98318.13
2023-03-29T12:49:55.414Z,98315.44
2023-03-29T12:52:04.193Z,98317.75
2023-03-29T12:54:13.513Z,98308.88
2023-03-29T12:56:23.915Z,98302.34
2023-03-29T12:58:41.703Z,98309.91
2023-03-29T13:00:50.568Z,98305.88
2023-03-29T13:03:07.565Z,98300.34
2023-03-29T13:05:31.404Z,98306.34
2023-03-29T13:07:49.953Z,98298.28
2023-03-29T13:09:57.091Z,98294.72
2023-03-29T13:12:09.185Z,98301.94
2023-03-29T13:14:20.093Z,98294.72
2023-03-29T13:16:33.095Z,98292.56
2023-03-29T13:18:51.186Z,98285.25
2023-03-29T13:21:04.917Z,98285.38
2023-03-29T13:23:27.949Z,98286.56
2023-03-29T13:25:47.813Z,98279.81
2023-03-29T13:28:04.800Z,98286.72
2023-03-29T13:30:23.174Z,98276.66
2023-03-29T13:32:42.569Z,98279.34
2023-03-29T13:34:50.855Z,98279.22
2023-03-29T13:37:07.921Z,98274.53
2023-03-29T13:39:19.351Z,98279.97
2023-03-29T13:41:36.414Z,98277.47
2023-03-29T13:43:56.565Z,98272.91
2023-03-29T13:46:20.045Z,98269.03
2023-03-29T13:48:30.054Z,98261.25
2023-03-29T13:50:40.627Z,98268.28
2023-03-29T13:52:52.655Z,98261.56
2023-03-29T13:55:03.789Z,98265.78
2023-03-29T13:57:17.359Z,98258.19
2023-03-29T13:59:34.461Z,98266.31
2023-03-29T14:01:46.075Z,98258.38
2023-03-29T14:03:54.423Z,98260.34
2023-03-29T14:06:02.697Z,98257.34
2023-03-29T14:08:13.146Z,98258.19
2023-03-29T14:10:21.575Z,98258.00
2023-03-29T14:12:27.483Z,98255.69
2023-03-29T14:14:37.201Z,98252.38
2023-03-29T14:16:45.633Z,98250.25
2023-03-29T14:18:52.444Z,98261.84
2023-03-29T14:20:58.675Z,98250.72
2023-03-29T14:23:03.587Z,98257.75
2023-03-29T14:25:15.748Z,98249.69
2023-03-29T14:27:21.539Z,98256.00
2023-03-29T14:29:27.271Z,98249.22
2023-03-29T14:31:36.872Z,98252.19
2023-03-29T14:33:42.096Z,98252.56
2023-03-29T14:35:46.788Z,98246.91
2023-03-29T14:37:52.465Z,98239.94
2023-03-29T14:39:58.614Z,98240.78
2023-03-29T14:42:04.269Z,98235.81
2023-03-29T14:44:11.570Z,98238.16
2023-03-29T14:46:21.388Z,98226.53
2023-03-29T14:48:29.134Z,98226.06
2023-03-29T14:50:34.443Z,98229.91
2023-03-29T14:52:39.888Z,98222.56
2023-03-29T14:54:48.488Z,98215.72
2023-03-29T14:56:54.785Z,98218.44
2023-03-29T14:59:00.514Z,98220.81
2023-03-29T15:01:08.485Z,98217.44
2023-03-29T15:03:17.577Z,98205.16
2023-03-29T15:05:33.875Z,98204.31
2023-03-29T15:07:40.157Z,98204.69
2023-03-29T15:09:48.323Z,98199.66
2023-03-29T15:11:58.012Z,98202.28
2023-03-29T15:14:06.732Z,98210.53
2023-03-29T15:16:14.314Z,98200.63
2023-03-29T15:18:20.047Z,98196.84
2023-03-29T15:20:29.819Z,98191.41
2023-03-29T15:22:36.095Z,98195.53
2023-03-29T15:24:46.919Z,98182.13
2023-03-29T15:27:03.607Z,98184.50
2023-03-29T15:29:17.270Z,98181.59
2023-03-29T15:31:23.703Z,98186.28
2023-03-29T15:33:36.514Z,98187.50
2023-03-29T15:35:45.065Z,98187.50
2023-03-29T15:37:50.217Z,98180.56
2023-03-29T15:39:55.335Z,98178.88
2023-03-29T15:42:00.384Z,98184.88
2023-03-29T15:44:05.827Z,98173.84
2023-03-29T15:46:11.006Z,98170.38
2023-03-29T15:48:18.034Z,98165.28
2023-03-29T15:50:23.638Z,98168.84
2023-03-29T15:52:31.952Z,98159.75
2023-03-29T15:54:37.368Z,98162.63
2023-03-29T15:56:50.361Z,98162.09
2023-03-29T15:58:55.306Z,98155.56
2023-03-29T16:01:02.757Z,98155.88
2023-03-29T16:03:07.769Z,98162.16
2023-03-29T16:05:13.970Z,98164.53
2023-03-29T16:07:21.131Z,98157.53
2023-03-29T16:09:29.652Z,98153.75
2023-03-29T16:11:34.615Z,98157.91
2023-03-29T16:13:39.559Z,98150.22
2023-03-29T16:15:45.517Z,98152.09
2023-03-29T16:17:50.418Z,98150.22
2023-03-29T16:19:55.387Z,98143.28
2023-03-29T16:22:01.346Z,98134.75
2023-03-29T16:24:07.523Z,98136.81
2023-03-29T16:26:17.697Z,98138.72
2023-03-29T16:28:22.705Z,98141.88
2023-03-29T16:30:28.073Z,98138.03
2023-03-29T16:32:33.074Z,98139.44
2023-03-29T16:34:38.233Z,98138.22
2023-03-29T16:36:44.305Z,98136.75
2023-03-29T16:38:49.221Z,98143.19
2023-03-29T16:40:54.233Z,98137.31
2023-03-29T16:43:02.296Z,98141.22
2023-03-29T16:45:08.351Z,98138.69
2023-03-29T16:47:13.727Z,98136.06
2023-03-29T16:49:19.756Z,98135.69
2023-03-29T16:51:24.690Z,98140.72
2023-03-29T16:53:30.524Z,98138.19
2023-03-29T16:55:35.894Z,98137.34
2023-03-29T16:57:41.185Z,98142.78
2023-03-29T16:59:48.674Z,98146.38
2023-03-29T17:01:53.671Z,98138.59
2023-03-29T17:03:58.425Z,98145.06
2023-03-29T17:06:05.414Z,98141.59
2023-03-29T17:08:11.256Z,98143.28
2023-03-29T17:10:16.693Z,98132.78
2023-03-29T17:12:21.751Z,98124.91
2023-03-29T17:14:26.786Z,98129.31
2023-03-29T17:16:34.463Z,98124.38
2023-03-29T17:18:39.583Z,98128.88
2023-03-29T17:20:44.286Z,98134.59
2023-03-29T17:22:51.740Z,98138.44
2023-03-29T17:24:56.733Z,98143.03
2023-03-29T17:27:01.700Z,98140.50
2023-03-29T17:29:06.973Z,98134.31
2023-03-29T17:31:12.074Z,98138.72
2023-03-29T17:33:22.805Z,98137.53
2023-03-29T17:35:29.362Z,98137.59
2023-03-29T17:37:34.386Z,98137.72
2023-03-29T17:39:39.332Z,98130.03
2023-03-29T17:41:45.187Z,98126.66
2023-03-29T17:43:51.189Z,98132.84
2023-03-29T17:45:56.877Z,98126.75
2023-03-29T17:48:04.109Z,98122.44
2023-03-29T17:50:15.393Z,98123.28
2023-03-29T17:52:20.675Z,98125.00
2023-03-29T17:54:25.677Z,98123.28
2023-03-29T17:56:30.995Z,98119.94
2023-03-29T17:58:36.283Z,98121.69
2023-03-29T18:00:41.632Z,98124.41
2023-03-29T18:02:46.913Z,98119.19
2023-03-29T18:04:52.600Z,98122.72
2023-03-29T18:07:00.174Z,98128.91
2023-03-29T18:09:05.266Z,98129.09
2023-03-29T18:11:11.810Z,98131.31
2023-03-29T18:13:16.851Z,98125.44
2023-03-29T18:15:21.984Z,98130.69
2023-03-29T18:17:27.542Z,98131.06
2023-03-29T18:19:32.784Z,98133.00
2023-03-29T18:21:37.706Z,98137.47
2023-03-29T18:23:47.980Z,98135.88
2023-03-29T18:25:53.253Z,98135.97
2023-03-29T18:27:57.972Z,98135.41
2023-03-29T18:30:03.101Z,98138.03
2023-03-29T18:32:08.921Z,98139.69
2023-03-29T18:34:13.901Z,98138.59
2023-03-29T18:36:18.880Z,98136.88
2023-03-29T18:38:25.845Z,98133.34
2023-03-29T18:40:34.873Z,98127.94
2023-03-29T18:42:40.007Z,98131.47
2023-03-29T18:44:44.694Z,98123.91
2023-03-29T18:46:49.809Z,98135.22
2023-03-29T18:48:54.696Z,98132.78
2023-03-29T18:50:59.932Z,98133.53
2023-03-29T18:53:04.907Z,98129.78
2023-03-29T18:55:11.123Z,98134.84
2023-03-29T18:57:18.850Z,98125.22
2023-03-29T18:59:23.827Z,98130.25
2023-03-29T19:01:28.996Z,98133.66
2023-03-29T19:03:34.877Z,98126.56
2023-03-29T19:05:40.656Z,98127.41
2023-03-29T19:07:45.711Z,98124.78
2023-03-29T19:09:50.454Z,98130.22
2023-03-29T19:11:55.568Z,98122.41
2023-03-29T19:14:02.923Z,98123.53
2023-03-29T19:16:08.971Z,98119.13
2023-03-29T19:18:14.100Z,98115.56
2023-03-29T19:20:19.173Z,98118.00
2023-03-29T19:22:24.047Z,98121.56
2023-03-29T19:24:29.007Z,98122.50
2023-03-29T19:26:33.982Z,98122.50
2023-03-29T19:28:39.056Z,98124.19
2023-03-29T19:30:46.676Z,98118.94
2023-03-29T19:32:51.816Z,98121.56
2023-03-29T19:34:56.776Z,98115.38
2023-03-29T19:37:01.909Z,98117.13
2023-03-29T19:39:07.275Z,98115.22
2023-03-29T19:41:12.767Z,98110.84
2023-03-29T19:43:18.480Z,98116.94
2023-03-29T19:45:23.854Z,98110.09
2023-03-29T19:47:31.370Z,98105.69
2023-03-29T19:49:36.821Z,98097.84
2023-03-29T19:51:42.131Z,98100.44
2023-03-29T19:53:47.461Z,98092.59
2023-03-29T19:55:52.626Z,98090.13
2023-03-29T19:57:57.884Z,98087.69
2023-03-29T20:00:04.337Z,98081.69
2023-03-29T20:02:17.736Z,98081.91
2023-03-29T20:04:26.345Z,98087.13
2023-03-29T20:06:31.334Z,98085.00
2023-03-29T20:08:39.001Z,98082.44
2023-03-29T20:10:44.221Z,98074.13
2023-03-29T20:12:50.870Z,98073.38
2023-03-29T20:14:55.818Z,98067.56
2023-03-29T20:17:00.877Z,98072.97
2023-03-29T20:19:07.251Z,98082.81
2023-03-29T20:21:17.097Z,98072.31
2023-03-29T20:23:22.118Z,98075.19
2023-03-29T20:25:27.395Z,98071.75
2023-03-29T20:27:32.272Z,98075.03
2023-03-29T20:29:37.583Z,98092.44
2023-03-29T20:31:42.337Z,98081.31
2023-03-29T20:33:47.339Z,98063.91
2023-03-29T20:35:52.580Z,98074.19
2023-03-29T20:37:59.934Z,98072.03
2023-03-29T20:40:05.602Z,98062.47
2023-03-29T20:42:11.415Z,98067.00
2023-03-29T20:44:19.601Z,98060.06
2023-03-29T20:46:28.463Z,98063.50
2023-03-29T20:48:33.380Z,98074.91
2023-03-29T20:50:38.684Z,98067.81
2023-03-29T20:52:43.568Z,98072.94
2023-03-29T20:54:51.823Z,98070.16
2023-03-29T20:56:57.526Z,98059.69
2023-03-29T20:59:04.193Z,98045.19
2023-03-29T21:01:09.220Z,98041.00
2023-03-29T21:03:14.507Z,98042.03
2023-03-29T21:05:19.602Z,98041.25
2023-03-29T21:07:24.556Z,98044.06
2023-03-29T21:09:31.266Z,98043.47
2023-03-29T21:11:38.746Z,98032.09
2023-03-29T21:13:43.787Z,98029.94
2023-03-29T21:15:49.659Z,98045.63
2023-03-29T21:17:54.677Z,98041.88
2023-03-29T21:19:59.527Z,98030.94
2023-03-29T21:22:05.205Z,98031.72
2023-03-29T21:24:11.397Z,98022.84
2023-03-29T21:26:17.165Z,98026.53
2023-03-29T21:28:24.715Z,98020.47
2023-03-29T21:30:31.412Z,98017.88
2023-03-29T21:32:37.191Z,98014.66
2023-03-29T21:34:42.064Z,98009.03
2023-03-29T21:36:46.998Z,98014.44
2023-03-29T21:38:52.178Z,98015.22
2023-03-29T21:40:58.304Z,98004.75
2023-03-29T21:43:03.337Z,98009.03
2023-03-29T21:45:12.885Z,98008.31
2023-03-29T21:47:18.101Z,98009.22
2023-03-29T21:49:22.973Z,98002.56
2023-03-29T21:51:28.044Z,98013.50
2023-03-29T21:53:32.940Z,98011.88
2023-03-29T21:55:38.694Z,98007.50
2023-03-29T21:57:43.656Z,98000.66
2023-03-29T21:59:48.576Z,98004.22
2023-03-29T22:01:56.225Z,98000.94
2023-03-29T22:04:01.245Z,97994.03
2023-03-29T22:06:08.752Z,97987.13
2023-03-29T22:08:13.652Z,97985.50
2023-03-29T22:10:23.044Z,97982.13
2023-03-29T22:12:28.679Z,97976.19
2023-03-29T22:14:36.441Z,97984.69
2023-03-29T22:16:42.193Z,97987.94
2023-03-29T22:18:52.514Z,97979.94
2023-03-29T22:21:00.310Z,97973.28
2023-03-29T22:23:06.207Z,97974.41
2023-03-29T22:25:12.307Z,97969.31
2023-03-29T22:27:17.269Z,97961.66
2023-03-29T22:29:22.246Z,97967.91
2023-03-29T22:31:28.747Z,97959.56
2023-03-29T22:33:35.632Z,97965.63
2023-03-29T22:35:43.226Z,97958.03
2023-03-29T22:37:50.971Z,97957.38
2023-03-29T22:39:56.019Z,97962.69
2023-03-29T22:42:01.084Z,97959.22
2023-03-29T22:44:06.022Z,97953.19
2023-03-29T22:46:14.126Z,97956.44
2023-03-29T22:48:19.206Z,97961.44
2023-03-29T22:50:24.287Z,97958.63
2023-03-29T22:52:31.735Z,97955.09
2023-03-29T22:54:36.638Z,97956.78
2023-03-29T22:56:41.668Z,97955.84
2023-03-29T22:58:47.123Z,97948.06
2023-03-29T23:00:52.725Z,97944.44
2023-03-29T23:02:57.932Z,97944.63
2023-03-29T23:05:02.604Z,97939.75
2023-03-29T23:07:07.806Z,97945.09
2023-03-29T23:09:16.524Z,97946.16
2023-03-29T23:11:21.811Z,97930.41
2023-03-29T23:13:29.259Z,97931.16
2023-03-29T23:15:35.118Z,97927.63
2023-03-29T23:17:40.400Z,97930.13
2023-03-29T23:19:45.420Z,97932.09
2023-03-29T23:21:50.297Z,97923.59
2023-03-29T23:23:55.177Z,97922.94
2023-03-29T23:26:02.673Z,97920.31
2023-03-29T23:28:07.902Z,97917.78
2023-03-29T23:30:12.996Z,97918.13
2023-03-29T23:32:18.539Z,97910.13
2023-03-29T23:34:23.436Z,97907.50
2023-03-29T23:36:31.341Z,97906.50
2023-03-29T23:38:37.897Z,97903.97
2023-03-29T23:40:42.770Z,97906.41
2023-03-29T23:42:51.004Z,97909.69
2023-03-29T23:44:56.131Z,97900.91
2023-03-29T23:47:01.328Z,97910.13
2023-03-29T23:49:06.356Z,97896.22
2023-03-29T23:51:12.039Z,97900.50
2023-03-29T23:53:16.947Z,97899.78
2023-03-29T23:55:22.003Z,97902.47
2023-03-29T23:57:27.853Z,97897.41
2023-03-29T23:59:37.955Z,97893.19
